首页
METAR-TAF:

METAR-TAF

机场 :

卡尔维, 法国

纬度: 42-32N, 经度: 008-48E, 海拔: 64米

当前天气观测

该预报发布于31分钟前的08:30 UTC
风速7节,风向,在西北北转东北之间变化
温度 31°C
湿度 43%
气压 1019 hPa
能见度10公里或以上
1500米以下无云,无积雨云

METAR: LFKC 270830Z AUTO 35007KT 310V030 CAVOK 31/17 Q1019 NOSIG

时间: 11:01 (09:01 UTC)

预报

该预报发布于1小时和1分钟前的08:00 UTC
预报有效从27日的 09点(UTC)到 28日的 09点(UTC)
风速10节,风向
能见度10公里或以上
1500米以下无云,无积雨云
成为
从 27日的 18点(UTC)到 27日的 20点(UTC)
风速6节,风向
成为
从 28日的 07点(UTC)到 28日的 09点(UTC)
风速10节,风向西南

TAF: LFKC 270800Z 2709/2809 35010KT CAVOK TX36/2712Z TN21/2803Z BECMG 2718/2720 17006KT BECMG 2807/2809 23010KT

超过4000个机场的气象观测和天气预报(METAR&TAF报告)。

可查询的气象台以黄色和红色小点在地图上表示。

将鼠标移到小点上方,可查看气象台名称。

然后点击查看天气观测和预报。

如需切换地图:点击带黑十字的绿色按钮放大地图;点击带横线的绿色按钮缩小地图;或者点击绿色箭头查看邻近地区的地图。


METAR-TAF: